Time;durP1;ratioP1;P1;durP2;ratioP2;P2;SDS_P1;SDS_P2;PMS_P1;PMS_P2;Temp;Humidity;BMP_temperature;BMP_pressure;BME280_temperature;BME280_humidity;BME280_pressure;Samples;Min_cycle;Max_cycle;Signal;HPM_P1;HPM_P2
2023/12/20 00:00:16;;;;;;;20.13;9.45;;;;;;;;;;1019606;29;20496;-77
2023/12/20 00:00:46;;;;;;;11.48;6.57;;;;;;;;;;1021509;29;20035;-75
2023/12/20 00:01:17;;;;;;;19.92;8.00;;;;;;;;;;1021208;29;20039;-77
2023/12/20 00:01:47;;;;;;;8.50;3.95;;;;;;;;;;1021677;29;20027;-76
2023/12/20 00:02:18;;;;;;;8.35;7.47;;;;;;;;;;1021902;29;20016;-76
2023/12/20 00:02:48;;;;;;;11.60;5.95;;;;;;;;;;1021656;29;20487;-76
2023/12/20 00:03:19;;;;;;;12.57;3.92;;;;;;;;;;1021048;29;20114;-75
2023/12/20 00:03:49;;;;;;;6.78;3.63;;;;;;;;;;1021442;29;20034;-75
2023/12/20 00:04:19;;;;;;;9.45;3.67;;;;;;;;;;1022201;28;20035;-76
2023/12/20 00:04:50;;;;;;;4.70;4.40;;;;;;;;;;1022060;28;20027;-75
2023/12/20 00:05:21;;;;;;;11.18;5.18;;;;;;;;;;1021980;28;20077;-76
2023/12/20 00:05:51;;;;;;;10.27;3.95;;;;;;;;;;1020961;28;20029;-75
2023/12/20 00:06:21;;;;;;;3.67;3.08;;;;;;;;;;1021256;29;20030;-75
2023/12/20 00:06:52;;;;;;;17.75;6.93;;;;;;;;;;1021783;29;20026;-76
2023/12/20 00:07:22;;;;;;;16.35;6.63;;;;;;;;;;1021920;29;20031;-75
2023/12/20 00:07:53;;;;;;;5.93;3.80;;;;;;;;;;1022088;28;20023;-76
2023/12/20 00:08:23;;;;;;;11.13;7.75;;;;;;;;;;1022221;28;20019;-75
2023/12/20 00:08:54;;;;;;;6.50;5.88;;;;;;;;;;1022600;28;20123;-75
2023/12/20 00:09:24;;;;;;;3.95;3.65;;;;;;;;;;1020773;29;20027;-75
2023/12/20 00:09:54;;;;;;;6.80;6.13;;;;;;;;;;1021329;29;20034;-75
2023/12/20 00:10:25;;;;;;;6.40;5.07;;;;;;;;;;1021064;29;20051;-76
2023/12/20 00:10:55;;;;;;;5.68;4.15;;;;;;;;;;1022562;28;20031;-75
2023/12/20 00:11:26;;;;;;;7.05;5.90;;;;;;;;;;1022276;29;20464;-76
2023/12/20 00:11:57;;;;;;;4.82;3.55;;;;;;;;;;1021708;29;20059;-76
2023/12/20 00:12:27;;;;;;;8.13;3.83;;;;;;;;;;1022289;29;20126;-75
2023/12/20 00:12:57;;;;;;;14.05;6.30;;;;;;;;;;1021815;29;20477;-76
2023/12/20 00:13:28;;;;;;;11.52;8.23;;;;;;;;;;1021477;29;20027;-75
2023/12/20 00:13:58;;;;;;;11.15;7.40;;;;;;;;;;1022911;29;20078;-75
2023/12/20 00:14:29;;;;;;;13.82;6.28;;;;;;;;;;1021760;29;20016;-75
2023/12/20 00:14:59;;;;;;;5.63;3.63;;;;;;;;;;1022094;29;20027;-75
2023/12/20 00:15:29;;;;;;;8.23;7.47;;;;;;;;;;1022019;28;20482;-76
2023/12/20 00:16:00;;;;;;;3.83;3.20;;;;;;;;;;1022058;28;20015;-75
2023/12/20 00:16:31;;;;;;;4.55;4.15;;;;;;;;;;1021635;28;20468;-75
2023/12/20 00:17:02;;;;;;;9.00;5.82;;;;;;;;;;1021866;29;20432;-76
2023/12/20 00:17:32;;;;;;;30.10;9.27;;;;;;;;;;1022496;29;20034;-76
2023/12/20 00:18:03;;;;;;;9.48;7.03;;;;;;;;;;1021656;29;20038;-76
2023/12/20 00:18:33;;;;;;;4.38;4.00;;;;;;;;;;1021670;28;20066;-75
2023/12/20 00:19:03;;;;;;;5.68;2.90;;;;;;;;;;1021807;29;20511;-75
2023/12/20 00:19:34;;;;;;;6.80;4.88;;;;;;;;;;1021704;29;20066;-76
2023/12/20 00:20:06;;;;;;;16.40;7.50;;;;;;;;;;1017750;29;20020;-76
2023/12/20 00:20:36;;;;;;;18.45;7.80;;;;;;;;;;1021545;29;20019;-76
2023/12/20 00:21:06;;;;;;;6.85;5.00;;;;;;;;;;1020989;28;20428;-76
2023/12/20 00:21:37;;;;;;;6.25;4.97;;;;;;;;;;1021981;28;20506;-76
2023/12/20 00:22:08;;;;;;;11.02;6.47;;;;;;;;;;1025765;28;20592;-75
2023/12/20 00:22:38;;;;;;;9.93;5.50;;;;;;;;;;1025743;28;20122;-74
2023/12/20 00:23:08;;;;;;;26.80;8.10;;;;;;;;;;1023473;28;20090;-75
2023/12/20 00:23:39;;;;;;;7.88;5.22;;;;;;;;;;1021930;28;20058;-75
2023/12/20 00:24:09;;;;;;;11.25;6.50;;;;;;;;;;1022173;28;20039;-75
2023/12/20 00:24:40;;;;;;;10.88;4.38;;;;;;;;;;1022082;28;20063;-75
2023/12/20 00:25:10;;;;;;;9.52;5.40;;;;;;;;;;1022055;28;20019;-75
2023/12/20 00:25:41;;;;;;;10.13;4.65;;;;;;;;;;1022198;28;20015;-75
2023/12/20 00:26:11;;;;;;;4.45;4.13;;;;;;;;;;1022029;29;20034;-75
2023/12/20 00:26:42;;;;;;;4.80;3.97;;;;;;;;;;1020993;29;20147;-75
2023/12/20 00:27:12;;;;;;;9.07;6.32;;;;;;;;;;1021743;29;20063;-75
2023/12/20 00:27:43;;;;;;;7.97;4.68;;;;;;;;;;1022056;29;20063;-75
2023/12/20 00:28:13;;;;;;;6.63;5.60;;;;;;;;;;1021000;29;20031;-75
2023/12/20 00:28:44;;;;;;;8.38;6.75;;;;;;;;;;1020856;29;20102;-75
2023/12/20 00:29:14;;;;;;;5.65;3.58;;;;;;;;;;1022146;29;20101;-78
2023/12/20 00:29:47;;;;;;;14.18;7.78;;;;;;;;;;1021563;29;20015;-75
2023/12/20 00:30:18;;;;;;;9.50;4.75;;;;;;;;;;1021648;29;20043;-75
2023/12/20 00:30:48;;;;;;;6.47;4.93;;;;;;;;;;1021649;28;20031;-76
2023/12/20 00:31:19;;;;;;;12.02;4.45;;;;;;;;;;1021681;29;20027;-75
2023/12/20 00:31:49;;;;;;;7.32;4.97;;;;;;;;;;1022431;29;20027;-75
2023/12/20 00:32:20;;;;;;;20.20;6.20;;;;;;;;;;1021608;29;20101;-76
2023/12/20 00:32:50;;;;;;;4.43;4.10;;;;;;;;;;1021623;29;20074;-75
2023/12/20 00:33:20;;;;;;;28.20;7.93;;;;;;;;;;1021748;29;20166;-75
2023/12/20 00:33:51;;;;;;;19.48;6.68;;;;;;;;;;1021514;29;20035;-74
2023/12/20 00:34:21;;;;;;;11.43;7.53;;;;;;;;;;1022061;29;20027;-76
2023/12/20 00:34:52;;;;;;;22.00;7.28;;;;;;;;;;1021607;29;20479;-76
2023/12/20 00:35:22;;;;;;;7.28;5.97;;;;;;;;;;1021586;29;20027;-75
2023/12/20 00:35:53;;;;;;;4.05;3.67;;;;;;;;;;1020403;29;20419;-75
2023/12/20 00:36:23;;;;;;;21.35;7.55;;;;;;;;;;1022339;29;20511;-75
2023/12/20 00:36:54;;;;;;;12.65;6.82;;;;;;;;;;1021546;29;20427;-75
2023/12/20 00:37:25;;;;;;;12.40;4.20;;;;;;;;;;1017450;29;20051;-76
2023/12/20 00:37:55;;;;;;;6.70;6.00;;;;;;;;;;1015847;29;20480;-76
2023/12/20 00:38:26;;;;;;;10.18;6.28;;;;;;;;;;1015925;29;20035;-76
2023/12/20 00:38:57;;;;;;;16.63;7.13;;;;;;;;;;1019607;29;20024;-76
2023/12/20 00:39:27;;;;;;;12.70;8.93;;;;;;;;;;1020907;29;20087;-75
2023/12/20 00:39:57;;;;;;;10.77;7.00;;;;;;;;;;1022009;28;20034;-76
2023/12/20 00:40:28;;;;;;;11.60;5.47;;;;;;;;;;1021431;29;20027;-76
2023/12/20 00:40:58;;;;;;;14.85;8.15;;;;;;;;;;1021861;29;20030;-76
2023/12/20 00:41:29;;;;;;;13.98;7.60;;;;;;;;;;1021225;29;20031;-76
2023/12/20 00:41:59;;;;;;;22.70;6.97;;;;;;;;;;1020200;29;20028;-76
2023/12/20 00:42:29;;;;;;;4.28;3.92;;;;;;;;;;1021656;29;20391;-76
2023/12/20 00:43:00;;;;;;;24.55;6.47;;;;;;;;;;1021831;29;20476;-76
2023/12/20 00:43:30;;;;;;;6.47;3.83;;;;;;;;;;1021840;28;20602;-75
2023/12/20 00:44:01;;;;;;;8.02;4.60;;;;;;;;;;1021394;28;20027;-76
2023/12/20 00:44:31;;;;;;;15.23;5.38;;;;;;;;;;1021998;28;20447;-76
2023/12/20 00:45:02;;;;;;;10.07;6.10;;;;;;;;;;1021409;29;20027;-75
2023/12/20 00:45:33;;;;;;;3.65;3.35;;;;;;;;;;1021556;29;20059;-77
2023/12/20 00:46:03;;;;;;;9.07;5.18;;;;;;;;;;1021532;28;20031;-77
2023/12/20 00:46:34;;;;;;;12.55;6.35;;;;;;;;;;1019010;29;20496;-75
2023/12/20 00:47:04;;;;;;;11.07;5.95;;;;;;;;;;1022484;29;20500;-76
2023/12/20 00:47:35;;;;;;;11.60;8.15;;;;;;;;;;1019180;29;20492;-75
2023/12/20 00:48:05;;;;;;;9.88;6.57;;;;;;;;;;1019510;29;20028;-76
2023/12/20 00:48:36;;;;;;;8.13;6.00;;;;;;;;;;1019109;29;20056;-77
2023/12/20 00:49:06;;;;;;;15.82;5.78;;;;;;;;;;1018706;29;20023;-77
2023/12/20 00:49:37;;;;;;;6.90;3.75;;;;;;;;;;1019212;29;20467;-76
2023/12/20 00:50:08;;;;;;;6.43;3.80;;;;;;;;;;1019320;29;20066;-76
2023/12/20 00:50:39;;;;;;;7.95;3.05;;;;;;;;;;1021081;28;20031;-75
2023/12/20 00:51:09;;;;;;;6.40;3.83;;;;;;;;;;1021562;28;20542;-75
2023/12/20 00:51:40;;;;;;;4.38;3.97;;;;;;;;;;1021665;28;20520;-75
2023/12/20 00:52:10;;;;;;;7.18;6.50;;;;;;;;;;1022021;28;20023;-75
2023/12/20 00:52:41;;;;;;;6.55;5.20;;;;;;;;;;1021482;28;22174;-77
2023/12/20 00:53:11;;;;;;;8.75;6.53;;;;;;;;;;1021365;29;20415;-76
2023/12/20 00:53:43;;;;;;;13.27;5.95;;;;;;;;;;1021189;29;20031;-76
2023/12/20 00:54:13;;;;;;;16.23;7.18;;;;;;;;;;1021445;29;20015;-75
2023/12/20 00:54:44;;;;;;;16.08;5.15;;;;;;;;;;1021361;29;20023;-75
2023/12/20 00:55:14;;;;;;;3.78;2.22;;;;;;;;;;1021635;29;20061;-75
2023/12/20 00:55:45;;;;;;;6.88;5.53;;;;;;;;;;1022297;29;20019;-75
2023/12/20 00:56:15;;;;;;;10.32;7.07;;;;;;;;;;1021927;29;20028;-76
2023/12/20 00:56:46;;;;;;;8.85;4.57;;;;;;;;;;1021707;29;20618;-77
2023/12/20 00:57:18;;;;;;;5.18;4.63;;;;;;;;;;1022166;29;20040;-77
2023/12/20 00:57:49;;;;;;;8.02;5.85;;;;;;;;;;1021963;29;20029;-76
2023/12/20 00:58:19;;;;;;;3.38;2.20;;;;;;;;;;1021639;29;20024;-76
2023/12/20 00:58:50;;;;;;;7.32;5.93;;;;;;;;;;1021863;29;20069;-76
2023/12/20 00:59:20;;;;;;;6.50;4.30;;;;;;;;;;1021526;29;20018;-77
2023/12/20 00:59:51;;;;;;;8.77;7.93;;;;;;;;;;1020398;29;20028;-75
2023/12/20 01:00:21;;;;;;;13.13;6.00;;;;;;;;;;1021613;29;20030;-75
2023/12/20 01:00:52;;;;;;;3.90;3.58;;;;;;;;;;1021274;29;20027;-77
2023/12/20 01:01:22;;;;;;;21.20;7.57;;;;;;;;;;1021105;29;20051;-75
2023/12/20 01:01:52;;;;;;;5.45;4.95;;;;;;;;;;1021185;29;20566;-78
2023/12/20 01:02:23;;;;;;;11.10;5.72;;;;;;;;;;1021647;28;20390;-77
2023/12/20 01:02:53;;;;;;;8.88;4.85;;;;;;;;;;1021699;28;20498;-76
2023/12/20 01:03:24;;;;;;;9.02;5.30;;;;;;;;;;1022435;28;20015;-78
2023/12/20 01:03:55;;;;;;;8.02;3.22;;;;;;;;;;1021702;28;20030;-77
2023/12/20 01:04:25;;;;;;;6.03;4.28;;;;;;;;;;1020775;28;20024;-77
2023/12/20 01:04:56;;;;;;;11.18;6.88;;;;;;;;;;1021576;29;20079;-76
2023/12/20 01:05:26;;;;;;;4.50;4.20;;;;;;;;;;1022427;29;20034;-77
2023/12/20 01:05:57;;;;;;;5.32;3.47;;;;;;;;;;1021600;28;20040;-77
2023/12/20 01:06:27;;;;;;;4.57;4.25;;;;;;;;;;1021947;28;20023;-76
2023/12/20 01:06:57;;;;;;;5.25;3.33;;;;;;;;;;1021651;28;20122;-76
2023/12/20 01:07:28;;;;;;;3.40;2.00;;;;;;;;;;1021671;28;20016;-77
2023/12/20 01:07:58;;;;;;;7.13;4.28;;;;;;;;;;1019811;28;20019;-76
2023/12/20 01:08:29;;;;;;;2.38;2.17;;;;;;;;;;1020915;29;20066;-77
2023/12/20 01:08:59;;;;;;;12.50;6.03;;;;;;;;;;1021902;29;20026;-77
2023/12/20 01:09:30;;;;;;;5.28;3.53;;;;;;;;;;1021594;29;20015;-76
2023/12/20 01:10:00;;;;;;;17.05;3.97;;;;;;;;;;1020440;29;20034;-76
2023/12/20 01:10:31;;;;;;;5.75;4.63;;;;;;;;;;1021440;29;20186;-76
2023/12/20 01:11:03;;;;;;;6.18;5.57;;;;;;;;;;1021267;28;20380;-76
2023/12/20 01:11:34;;;;;;;4.22;3.65;;;;;;;;;;1021424;29;20094;-75
2023/12/20 01:12:04;;;;;;;7.22;4.25;;;;;;;;;;1021102;28;20529;-76
2023/12/20 01:12:36;;;;;;;10.43;3.75;;;;;;;;;;1022199;29;20546;-76
2023/12/20 01:13:06;;;;;;;3.38;3.15;;;;;;;;;;1021528;29;20074;-77
2023/12/20 01:13:37;;;;;;;9.85;6.80;;;;;;;;;;1019436;29;20063;-77
2023/12/20 01:14:07;;;;;;;11.98;6.38;;;;;;;;;;1018276;29;20011;-76
2023/12/20 01:14:39;;;;;;;8.25;7.30;;;;;;;;;;1019040;29;20513;-75
2023/12/20 01:15:09;;;;;;;8.25;5.60;;;;;;;;;;1021046;29;20024;-76
2023/12/20 01:15:40;;;;;;;11.25;6.50;;;;;;;;;;1021052;28;20073;-77
2023/12/20 01:16:11;;;;;;;9.88;4.47;;;;;;;;;;1021940;29;20031;-75
2023/12/20 01:16:42;;;;;;;13.15;6.88;;;;;;;;;;1021146;29;20613;-76
2023/12/20 01:17:12;;;;;;;13.45;5.43;;;;;;;;;;1021225;29;20035;-76
2023/12/20 01:17:43;;;;;;;17.50;7.50;;;;;;;;;;1021985;28;20094;-77
2023/12/20 01:18:13;;;;;;;19.88;5.55;;;;;;;;;;1021335;29;20383;-76
2023/12/20 01:18:44;;;;;;;5.07;4.68;;;;;;;;;;1020965;29;20126;-76
2023/12/20 01:19:14;;;;;;;10.45;5.72;;;;;;;;;;1020717;28;20082;-76
2023/12/20 01:19:45;;;;;;;11.63;5.82;;;;;;;;;;1021290;28;20070;-75
2023/12/20 01:20:15;;;;;;;6.47;4.03;;;;;;;;;;1020321;29;20665;-76
2023/12/20 01:20:46;;;;;;;6.63;4.63;;;;;;;;;;1020664;28;20507;-77
2023/12/20 01:21:16;;;;;;;4.55;3.95;;;;;;;;;;1021694;29;20030;-76
2023/12/20 01:21:47;;;;;;;11.30;6.60;;;;;;;;;;1021310;29;20031;-76
2023/12/20 01:22:17;;;;;;;12.77;5.55;;;;;;;;;;1020815;29;20032;-78
2023/12/20 01:22:48;;;;;;;5.50;4.43;;;;;;;;;;1017418;29;20552;-76
2023/12/20 01:23:18;;;;;;;10.40;5.10;;;;;;;;;;1020680;29;20028;-76
2023/12/20 01:23:48;;;;;;;4.78;4.40;;;;;;;;;;1020920;29;20027;-76
2023/12/20 01:24:19;;;;;;;9.77;5.53;;;;;;;;;;1021094;29;20491;-76
2023/12/20 01:24:49;;;;;;;8.95;3.50;;;;;;;;;;1020132;28;20035;-75
2023/12/20 01:25:20;;;;;;;11.48;5.65;;;;;;;;;;1020976;29;20030;-75
2023/12/20 01:25:50;;;;;;;16.08;3.42;;;;;;;;;;1020543;29;20027;-76
2023/12/20 01:26:21;;;;;;;10.48;8.85;;;;;;;;;;1021485;29;20260;-76
2023/12/20 01:26:51;;;;;;;5.53;4.70;;;;;;;;;;1020486;28;20452;-76
2023/12/20 01:27:21;;;;;;;4.60;4.20;;;;;;;;;;1022083;29;20118;-76
2023/12/20 01:27:52;;;;;;;10.63;5.63;;;;;;;;;;1019215;29;20027;-76
2023/12/20 01:28:23;;;;;;;7.50;3.97;;;;;;;;;;1020957;29;20085;-76
2023/12/20 01:28:53;;;;;;;11.45;5.40;;;;;;;;;;1021194;29;20063;-76
2023/12/20 01:29:24;;;;;;;5.05;3.28;;;;;;;;;;1019328;29;20030;-76
2023/12/20 01:29:54;;;;;;;7.43;6.57;;;;;;;;;;1019902;29;20039;-76
2023/12/20 01:30:25;;;;;;;10.68;5.38;;;;;;;;;;1020293;29;20507;-75
2023/12/20 01:30:55;;;;;;;11.13;4.30;;;;;;;;;;1020612;28;20032;-76
2023/12/20 01:31:27;;;;;;;4.82;4.30;;;;;;;;;;1020491;29;20090;-76
2023/12/20 01:31:57;;;;;;;9.30;5.07;;;;;;;;;;1020039;29;20070;-76
2023/12/20 01:32:28;;;;;;;6.70;5.90;;;;;;;;;;1020859;29;20513;-76
2023/12/20 01:33:00;;;;;;;8.07;2.85;;;;;;;;;;1020612;29;20035;-76
2023/12/20 01:33:30;;;;;;;6.70;3.70;;;;;;;;;;1020296;29;20015;-76
2023/12/20 01:34:01;;;;;;;13.90;7.40;;;;;;;;;;1020963;28;20023;-76
2023/12/20 01:34:31;;;;;;;5.78;4.63;;;;;;;;;;1020377;29;20654;-75
2023/12/20 01:35:02;;;;;;;8.32;2.63;;;;;;;;;;1020726;28;20569;-76
2023/12/20 01:35:32;;;;;;;5.22;4.18;;;;;;;;;;1019944;29;20031;-76
2023/12/20 01:36:03;;;;;;;8.80;5.50;;;;;;;;;;1020007;28;20121;-76
2023/12/20 01:36:34;;;;;;;10.77;7.18;;;;;;;;;;1019288;29;20015;-77
2023/12/20 01:37:04;;;;;;;4.47;4.05;;;;;;;;;;1020832;29;20475;-75
2023/12/20 01:37:34;;;;;;;5.85;4.85;;;;;;;;;;1019446;29;20119;-75
2023/12/20 01:38:05;;;;;;;7.72;4.97;;;;;;;;;;1019258;29;20020;-76
2023/12/20 01:38:35;;;;;;;10.93;6.13;;;;;;;;;;1020104;29;20026;-76
2023/12/20 01:39:06;;;;;;;9.35;4.38;;;;;;;;;;1023749;28;20022;-76
2023/12/20 01:39:36;;;;;;;9.95;6.90;;;;;;;;;;1020502;28;20042;-79
2023/12/20 01:40:07;;;;;;;9.80;5.63;;;;;;;;;;1020015;29;20098;-77
2023/12/20 01:40:38;;;;;;;6.25;4.28;;;;;;;;;;1020141;29;20106;-77
2023/12/20 01:41:08;;;;;;;2.90;2.17;;;;;;;;;;1018398;29;20106;-76
2023/12/20 01:41:39;;;;;;;4.07;2.72;;;;;;;;;;1020477;29;20122;-78
2023/12/20 01:42:11;;;;;;;4.65;2.83;;;;;;;;;;1019899;29;20063;-78
2023/12/20 01:42:41;;;;;;;10.27;3.60;;;;;;;;;;1015502;29;20028;-77
2023/12/20 01:43:12;;;;;;;10.43;5.80;;;;;;;;;;1018791;29;20086;-79
2023/12/20 01:43:42;;;;;;;4.57;3.30;;;;;;;;;;1015001;29;20637;-79
2023/12/20 01:44:13;;;;;;;5.55;4.95;;;;;;;;;;1015670;29;20035;-78
2023/12/20 01:44:44;;;;;;;4.85;4.45;;;;;;;;;;1019241;29;20035;-78
2023/12/20 01:45:14;;;;;;;13.32;7.65;;;;;;;;;;1019725;28;20032;-78
2023/12/20 01:45:45;;;;;;;7.40;5.00;;;;;;;;;;1024595;28;20038;-77
2023/12/20 01:46:15;;;;;;;3.25;2.95;;;;;;;;;;1019900;29;20507;-77
2023/12/20 01:46:46;;;;;;;8.60;4.03;;;;;;;;;;1019478;29;20033;-77
2023/12/20 01:47:17;;;;;;;17.10;7.18;;;;;;;;;;1020105;29;20051;-77
2023/12/20 01:47:47;;;;;;;13.35;7.18;;;;;;;;;;1014582;29;20571;-77
2023/12/20 01:48:19;;;;;;;2.78;2.58;;;;;;;;;;1015684;29;20023;-78
2023/12/20 01:48:50;;;;;;;9.73;3.78;;;;;;;;;;1019857;29;20062;-77
2023/12/20 01:49:21;;;;;;;7.38;6.63;;;;;;;;;;1021837;29;20501;-77
2023/12/20 01:49:52;;;;;;;5.80;4.70;;;;;;;;;;1019804;29;20027;-78
2023/12/20 01:50:23;;;;;;;3.88;3.65;;;;;;;;;;1021122;29;20027;-78
2023/12/20 01:50:54;;;;;;;28.33;10.80;;;;;;;;;;1018218;29;20488;-78
2023/12/20 01:51:27;;;;;;;4.10;3.80;;;;;;;;;;1016270;29;20935;-76
2023/12/20 01:51:57;;;;;;;4.07;3.65;;;;;;;;;;1014548;29;20062;-76
2023/12/20 01:52:28;;;;;;;5.60;4.40;;;;;;;;;;1017824;29;20488;-76
2023/12/20 01:53:00;;;;;;;4.13;3.85;;;;;;;;;;1015654;29;20473;-76
2023/12/20 01:53:32;;;;;;;9.55;4.68;;;;;;;;;;1018754;29;20106;-76
2023/12/20 01:54:03;;;;;;;10.52;8.30;;;;;;;;;;1018409;29;20410;-76
2023/12/20 01:54:34;;;;;;;3.42;2.70;;;;;;;;;;1016558;29;20039;-77
2023/12/20 01:55:12;;;;;;;5.75;3.75;;;;;;;;;;1017658;29;20111;-76
2023/12/20 01:55:43;;;;;;;5.13;4.72;;;;;;;;;;1011740;29;20192;-77
2023/12/20 01:56:15;;;;;;;2.95;2.78;;;;;;;;;;1013642;29;20030;-76
2023/12/20 01:56:45;;;;;;;4.40;3.60;;;;;;;;;;1015419;29;20024;-77
2023/12/20 01:57:16;;;;;;;5.28;4.15;;;;;;;;;;1016622;29;20611;-76
2023/12/20 01:57:47;;;;;;;28.85;4.53;;;;;;;;;;1020677;29;20399;-76
2023/12/20 01:58:18;;;;;;;9.25;4.95;;;;;;;;;;1019508;29;20027;-76
2023/12/20 01:58:49;;;;;;;3.50;3.22;;;;;;;;;;1020421;29;20037;-77
2023/12/20 01:59:20;;;;;;;8.70;4.85;;;;;;;;;;1017902;29;20417;-78
2023/12/20 01:59:51;;;;;;;7.45;5.20;;;;;;;;;;1013062;29;20028;-78
2023/12/20 02:00:23;;;;;;;2.63;2.20;;;;;;;;;;1014046;29;20395;-78
2023/12/20 02:00:54;;;;;;;2.28;2.17;;;;;;;;;;1015250;29;20288;-77
2023/12/20 02:01:24;;;;;;;5.03;4.53;;;;;;;;;;1020434;29;20026;-76
2023/12/20 02:01:55;;;;;;;6.13;4.18;;;;;;;;;;1019198;28;20034;-77
2023/12/20 02:02:27;;;;;;;18.73;8.60;;;;;;;;;;1020021;29;20469;-77
2023/12/20 02:03:00;;;;;;;2.70;2.50;;;;;;;;;;1020577;29;20036;-77
2023/12/20 02:03:31;;;;;;;8.23;5.22;;;;;;;;;;1018674;29;20125;-77
2023/12/20 02:04:01;;;;;;;3.20;3.03;;;;;;;;;;1020297;28;20015;-76
2023/12/20 02:04:32;;;;;;;4.63;3.55;;;;;;;;;;1018441;29;20036;-76
2023/12/20 02:05:03;;;;;;;6.20;3.83;;;;;;;;;;1020362;29;20445;-76
2023/12/20 02:05:34;;;;;;;7.05;4.88;;;;;;;;;;1030878;23;20644;-77
2023/12/20 02:06:05;;;;;;;6.35;5.72;;;;;;;;;;1028282;28;20037;-77
2023/12/20 02:06:36;;;;;;;6.30;3.83;;;;;;;;;;1029834;28;20132;-77
2023/12/20 02:07:07;;;;;;;8.60;4.75;;;;;;;;;;1031766;28;20065;-76
2023/12/20 02:07:38;;;;;;;5.38;3.95;;;;;;;;;;1030668;28;20022;-76
2023/12/20 02:08:08;;;;;;;10.18;6.85;;;;;;;;;;1027326;28;20070;-77
2023/12/20 02:08:39;;;;;;;9.63;6.18;;;;;;;;;;1026315;28;20014;-76
2023/12/20 02:09:09;;;;;;;14.82;4.50;;;;;;;;;;1028492;28;20033;-77
2023/12/20 02:09:40;;;;;;;3.28;3.08;;;;;;;;;;1024363;28;20023;-76
2023/12/20 02:10:11;;;;;;;16.05;7.72;;;;;;;;;;1025583;28;20022;-76
2023/12/20 02:10:42;;;;;;;4.53;4.00;;;;;;;;;;1023628;28;20027;-77
2023/12/20 02:11:12;;;;;;;4.78;4.45;;;;;;;;;;1022083;28;20523;-76
2023/12/20 02:11:43;;;;;;;9.65;4.10;;;;;;;;;;1027235;28;20117;-77
2023/12/20 02:12:13;;;;;;;5.50;5.00;;;;;;;;;;1024571;28;20136;-76
2023/12/20 02:12:44;;;;;;;8.27;4.05;;;;;;;;;;1022292;28;20133;-77
2023/12/20 02:13:14;;;;;;;9.02;5.72;;;;;;;;;;1023948;28;20557;-76
2023/12/20 02:13:45;;;;;;;10.18;4.97;;;;;;;;;;1025308;28;20451;-76
2023/12/20 02:14:16;;;;;;;30.00;6.68;;;;;;;;;;1025397;28;20394;-76
2023/12/20 02:14:46;;;;;;;13.07;5.43;;;;;;;;;;1023817;28;20480;-76
2023/12/20 02:15:17;;;;;;;3.67;3.47;;;;;;;;;;1022090;28;20026;-76
2023/12/20 02:15:47;;;;;;;4.32;3.88;;;;;;;;;;1023731;28;20125;-77
2023/12/20 02:16:18;;;;;;;5.65;3.00;;;;;;;;;;1022281;28;20028;-78
2023/12/20 02:16:49;;;;;;;5.80;3.40;;;;;;;;;;1022614;28;20593;-77
2023/12/20 02:17:20;;;;;;;9.93;4.30;;;;;;;;;;1023433;28;20023;-77
2023/12/20 02:17:50;;;;;;;13.57;4.95;;;;;;;;;;1020912;28;20027;-78
2023/12/20 02:18:21;;;;;;;8.23;7.45;;;;;;;;;;1017495;29;20051;-77
2023/12/20 02:18:51;;;;;;;3.47;2.92;;;;;;;;;;1021950;28;20066;-77
2023/12/20 02:19:22;;;;;;;4.63;4.22;;;;;;;;;;1020342;28;20063;-76
2023/12/20 02:19:53;;;;;;;2.28;2.15;;;;;;;;;;1014238;29;20438;-77
2023/12/20 02:20:23;;;;;;;9.23;6.63;;;;;;;;;;1018354;29;20058;-77
2023/12/20 02:20:54;;;;;;;6.32;5.25;;;;;;;;;;1019569;29;20034;-76
2023/12/20 02:21:25;;;;;;;2.38;2.22;;;;;;;;;;1022046;28;20023;-76
2023/12/20 02:22:09;;;;;;;5.38;4.90;;;;;;;;;;1027602;28;20023;-78
2023/12/20 02:22:39;;;;;;;6.65;4.70;;;;;;;;;;1023732;28;20031;-77
2023/12/20 02:23:09;;;;;;;11.65;2.97;;;;;;;;;;1025437;28;20113;-77
2023/12/20 02:23:40;;;;;;;7.25;6.55;;;;;;;;;;1028308;28;20058;-76
2023/12/20 02:24:11;;;;;;;3.78;2.97;;;;;;;;;;1027121;28;20058;-77
2023/12/20 02:24:41;;;;;;;4.82;4.50;;;;;;;;;;1026570;28;20038;-77
2023/12/20 02:25:12;;;;;;;6.13;5.57;;;;;;;;;;1026433;28;20509;-77
2023/12/20 02:25:42;;;;;;;7.35;4.90;;;;;;;;;;1027090;28;20026;-77
2023/12/20 02:26:13;;;;;;;4.68;3.83;;;;;;;;;;1033777;28;20077;-77
2023/12/20 02:26:44;;;;;;;8.75;7.93;;;;;;;;;;1031075;28;20445;-78
2023/12/20 02:27:15;;;;;;;6.22;4.88;;;;;;;;;;1027486;28;20164;-76
2023/12/20 02:27:45;;;;;;;6.38;5.70;;;;;;;;;;1025374;28;20023;-78
2023/12/20 02:28:16;;;;;;;3.65;3.35;;;;;;;;;;1022117;28;20023;-76
2023/12/20 02:28:47;;;;;;;3.20;3.00;;;;;;;;;;1020572;28;20482;-76
2023/12/20 02:29:17;;;;;;;8.00;5.35;;;;;;;;;;1022354;28;20052;-76
2023/12/20 02:29:48;;;;;;;11.05;7.03;;;;;;;;;;1021513;28;20027;-76
2023/12/20 02:30:19;;;;;;;21.60;7.10;;;;;;;;;;1021802;28;20039;-76
2023/12/20 02:30:49;;;;;;;7.15;4.72;;;;;;;;;;1021595;28;20121;-78
2023/12/20 02:31:22;;;;;;;6.15;3.30;;;;;;;;;;1021481;28;20387;-78
2023/12/20 02:31:52;;;;;;;6.38;4.40;;;;;;;;;;1022615;28;20455;-78
2023/12/20 02:32:26;;;;;;;4.30;3.63;;;;;;;;;;1023627;28;20021;-78
2023/12/20 02:32:56;;;;;;;4.70;3.58;;;;;;;;;;1022501;28;20855;-76
2023/12/20 02:33:27;;;;;;;3.28;3.00;;;;;;;;;;1026781;28;20231;-76
2023/12/20 02:33:57;;;;;;;10.45;4.53;;;;;;;;;;1026787;28;20035;-77
2023/12/20 02:34:28;;;;;;;15.40;2.78;;;;;;;;;;1022070;28;20035;-76
2023/12/20 02:34:58;;;;;;;3.65;3.35;;;;;;;;;;1020788;28;20436;-76
2023/12/20 02:35:28;;;;;;;5.18;1.42;;;;;;;;;;1020930;28;20027;-77
2023/12/20 02:35:59;;;;;;;4.18;3.67;;;;;;;;;;1023550;28;20054;-77
2023/12/20 02:36:29;;;;;;;3.53;2.95;;;;;;;;;;1023134;28;20500;-76
2023/12/20 02:37:00;;;;;;;4.07;2.58;;;;;;;;;;1023764;28;20435;-75
2023/12/20 02:37:30;;;;;;;4.22;3.83;;;;;;;;;;1023159;28;20380;-76
2023/12/20 02:38:01;;;;;;;10.43;6.32;;;;;;;;;;1022807;28;20018;-76
2023/12/20 02:38:35;;;;;;;1.95;1.85;;;;;;;;;;1022798;28;20027;-75
2023/12/20 02:39:06;;;;;;;7.90;3.80;;;;;;;;;;1021920;28;20067;-77
2023/12/20 02:39:37;;;;;;;7.97;3.72;;;;;;;;;;1016051;29;20031;-76
2023/12/20 02:40:07;;;;;;;5.45;4.00;;;;;;;;;;1021681;28;20030;-77
2023/12/20 02:40:39;;;;;;;6.05;5.30;;;;;;;;;;1017803;28;20042;-77
2023/12/20 02:41:09;;;;;;;9.45;5.68;;;;;;;;;;1020258;29;20023;-77
2023/12/20 02:41:40;;;;;;;4.45;3.90;;;;;;;;;;1017853;29;20134;-77
2023/12/20 02:42:10;;;;;;;5.07;4.68;;;;;;;;;;1019677;28;20159;-79
2023/12/20 02:42:41;;;;;;;10.70;6.57;;;;;;;;;;1026450;28;20045;-77
2023/12/20 02:43:11;;;;;;;7.88;5.43;;;;;;;;;;1025840;28;20030;-78
2023/12/20 02:43:42;;;;;;;4.47;3.80;;;;;;;;;;1020442;28;20030;-77
2023/12/20 02:44:12;;;;;;;9.20;5.85;;;;;;;;;;1020635;29;20498;-80
2023/12/20 02:44:44;;;;;;;5.38;4.63;;;;;;;;;;1015060;29;20101;-78
2023/12/20 02:45:15;;;;;;;11.60;6.60;;;;;;;;;;1024828;28;20028;-77
2023/12/20 02:45:45;;;;;;;5.18;3.97;;;;;;;;;;1026750;28;20199;-77
2023/12/20 02:46:17;;;;;;;6.15;5.68;;;;;;;;;;1029716;28;20033;-76
2023/12/20 02:46:47;;;;;;;2.50;2.40;;;;;;;;;;1020579;28;20027;-76
2023/12/20 02:47:18;;;;;;;5.28;4.78;;;;;;;;;;1020079;29;20055;-77
2023/12/20 02:47:48;;;;;;;10.38;6.00;;;;;;;;;;1019367;29;20130;-76
2023/12/20 02:48:19;;;;;;;5.35;4.85;;;;;;;;;;1023628;28;20701;-75
2023/12/20 02:48:50;;;;;;;6.65;4.88;;;;;;;;;;1021169;28;20031;-75
2023/12/20 02:49:21;;;;;;;3.72;3.42;;;;;;;;;;1018151;29;20665;-75
2023/12/20 02:49:52;;;;;;;5.00;4.13;;;;;;;;;;1020026;28;20054;-77
2023/12/20 02:50:23;;;;;;;2.00;1.90;;;;;;;;;;1022072;28;20063;-78
2023/12/20 02:50:54;;;;;;;4.25;2.90;;;;;;;;;;1020868;28;20035;-78
2023/12/20 02:51:25;;;;;;;3.13;2.90;;;;;;;;;;1024470;28;20114;-80
2023/12/20 02:51:56;;;;;;;4.43;3.47;;;;;;;;;;1024027;28;20040;-78
2023/12/20 02:52:27;;;;;;;3.30;2.97;;;;;;;;;;1022844;28;20103;-78
2023/12/20 02:52:58;;;;;;;6.15;2.78;;;;;;;;;;1021282;28;20516;-78
2023/12/20 02:53:28;;;;;;;4.70;4.28;;;;;;;;;;1021768;28;20097;-79
2023/12/20 02:53:59;;;;;;;4.15;3.95;;;;;;;;;;1021697;28;20117;-78
2023/12/20 02:54:29;;;;;;;5.55;5.13;;;;;;;;;;1025503;28;20506;-78
2023/12/20 02:55:00;;;;;;;5.20;4.70;;;;;;;;;;1025500;28;20030;-78
2023/12/20 02:55:31;;;;;;;5.32;4.03;;;;;;;;;;1021721;28;20673;-78
2023/12/20 02:56:02;;;;;;;7.80;5.15;;;;;;;;;;1020009;28;20150;-77
2023/12/20 02:56:33;;;;;;;4.72;2.58;;;;;;;;;;1019868;28;20027;-77
2023/12/20 02:57:04;;;;;;;19.63;6.57;;;;;;;;;;1020809;28;20038;-77
2023/12/20 02:57:36;;;;;;;3.25;3.03;;;;;;;;;;1018448;28;20085;-76
2023/12/20 02:58:06;;;;;;;11.00;4.90;;;;;;;;;;1025176;28;20117;-77
2023/12/20 02:58:37;;;;;;;5.57;5.03;;;;;;;;;;1021337;28;20023;-78
2023/12/20 02:59:08;;;;;;;1.80;1.70;;;;;;;;;;1024576;28;20031;-76
2023/12/20 02:59:39;;;;;;;6.93;5.70;;;;;;;;;;1028251;28;20057;-76
2023/12/20 03:00:10;;;;;;;6.18;5.28;;;;;;;;;;1027278;28;20086;-75
2023/12/20 03:00:41;;;;;;;7.55;6.10;;;;;;;;;;1025489;28;20052;-79
2023/12/20 03:01:11;;;;;;;10.50;3.60;;;;;;;;;;1022505;28;20026;-76
2023/12/20 03:01:45;;;;;;;7.53;5.72;;;;;;;;;;1019376;28;20054;-76
2023/12/20 03:02:16;;;;;;;1.60;1.52;;;;;;;;;;1020473;28;20097;-76
2023/12/20 03:02:47;;;;;;;10.77;4.55;;;;;;;;;;1022348;28;20534;-77
2023/12/20 03:03:17;;;;;;;6.43;4.65;;;;;;;;;;1020720;28;20030;-77